sensor_id;sensor_type;location;lat;lon;timestamp;temperature;humidity
6664;DHT22;58749;48.022;10.922;2023-02-11T00:01:19;0.20;99.90
6664;DHT22;58749;48.022;10.922;2023-02-11T00:03:48;0.30;99.90
6664;DHT22;58749;48.022;10.922;2023-02-11T00:06:17;0.30;99.90
6664;DHT22;58749;48.022;10.922;2023-02-11T00:08:45;0.30;99.90
6664;DHT22;58749;48.022;10.922;2023-02-11T00:11:14;0.30;99.90
6664;DHT22;58749;48.022;10.922;2023-02-11T00:13:43;0.20;99.90
6664;DHT22;58749;48.022;10.922;2023-02-11T00:16:13;0.30;99.90
6664;DHT22;58749;48.022;10.922;2023-02-11T00:18:42;0.20;99.90
6664;DHT22;58749;48.022;10.922;2023-02-11T00:21:14;0.20;99.90
6664;DHT22;58749;48.022;10.922;2023-02-11T00:23:43;0.20;99.90
6664;DHT22;58749;48.022;10.922;2023-02-11T00:26:12;0.20;99.90
6664;DHT22;58749;48.022;10.922;2023-02-11T00:28:40;0.20;99.90
6664;DHT22;58749;48.022;10.922;2023-02-11T00:31:09;0.10;99.90
6664;DHT22;58749;48.022;10.922;2023-02-11T00:33:37;0.20;99.90
6664;DHT22;58749;48.022;10.922;2023-02-11T00:36:07;0.10;99.90
6664;DHT22;58749;48.022;10.922;2023-02-11T00:38:37;0.20;99.90
6664;DHT22;58749;48.022;10.922;2023-02-11T00:41:05;0.20;99.90
6664;DHT22;58749;48.022;10.922;2023-02-11T00:43:34;0.10;99.90
6664;DHT22;58749;48.022;10.922;2023-02-11T00:46:03;0.10;99.90
6664;DHT22;58749;48.022;10.922;2023-02-11T00:48:31;0.10;99.90
6664;DHT22;58749;48.022;10.922;2023-02-11T00:50:59;0.10;99.90
6664;DHT22;58749;48.022;10.922;2023-02-11T00:53:27;0.10;99.90
6664;DHT22;58749;48.022;10.922;2023-02-11T00:55:56;0.10;99.90
6664;DHT22;58749;48.022;10.922;2023-02-11T00:58:24;0.20;99.90
6664;DHT22;58749;48.022;10.922;2023-02-11T01:00:52;0.10;99.90
6664;DHT22;58749;48.022;10.922;2023-02-11T01:03:21;0.10;99.90
6664;DHT22;58749;48.022;10.922;2023-02-11T01:05:49;0.10;99.90
6664;DHT22;58749;48.022;10.922;2023-02-11T01:08:17;0.10;99.90
6664;DHT22;58749;48.022;10.922;2023-02-11T01:10:53;0.20;99.90
6664;DHT22;58749;48.022;10.922;2023-02-11T01:13:23;0.10;99.90
6664;DHT22;58749;48.022;10.922;2023-02-11T01:15:52;0.10;99.90
6664;DHT22;58749;48.022;10.922;2023-02-11T01:18:20;0.20;99.90
6664;DHT22;58749;48.022;10.922;2023-02-11T01:20:49;0.10;99.90
6664;DHT22;58749;48.022;10.922;2023-02-11T01:23:18;0.10;99.90
6664;DHT22;58749;48.022;10.922;2023-02-11T01:25:46;0.10;99.90
6664;DHT22;58749;48.022;10.922;2023-02-11T01:28:16;0.20;99.90
6664;DHT22;58749;48.022;10.922;2023-02-11T01:30:46;0.10;99.90
6664;DHT22;58749;48.022;10.922;2023-02-11T01:33:14;0.10;99.90
6664;DHT22;58749;48.022;10.922;2023-02-11T01:35:43;0.10;99.90
6664;DHT22;58749;48.022;10.922;2023-02-11T01:38:14;0.10;99.90
6664;DHT22;58749;48.022;10.922;2023-02-11T01:40:46;0.10;99.90
6664;DHT22;58749;48.022;10.922;2023-02-11T01:43:14;0.10;99.90
6664;DHT22;58749;48.022;10.922;2023-02-11T01:46:00;0.10;99.90
6664;DHT22;58749;48.022;10.922;2023-02-11T01:48:32;0.00;99.90
6664;DHT22;58749;48.022;10.922;2023-02-11T01:51:04;0.10;99.90
6664;DHT22;58749;48.022;10.922;2023-02-11T01:53:35;0.00;99.90
6664;DHT22;58749;48.022;10.922;2023-02-11T01:56:22;0.00;99.90
6664;DHT22;58749;48.022;10.922;2023-02-11T01:59:12;0.00;99.90
6664;DHT22;58749;48.022;10.922;2023-02-11T02:01:46;0.00;99.90
6664;DHT22;58749;48.022;10.922;2023-02-11T02:04:17;-0.10;99.90
6664;DHT22;58749;48.022;10.922;2023-02-11T02:06:49;-0.10;99.90
6664;DHT22;58749;48.022;10.922;2023-02-11T02:09:21;-0.10;99.90
6664;DHT22;58749;48.022;10.922;2023-02-11T02:11:50;-0.20;99.90
6664;DHT22;58749;48.022;10.922;2023-02-11T02:14:18;-0.20;99.90
6664;DHT22;58749;48.022;10.922;2023-02-11T02:16:48;-0.10;99.90
6664;DHT22;58749;48.022;10.922;2023-02-11T02:19:47;-0.10;99.90
6664;DHT22;58749;48.022;10.922;2023-02-11T02:25:59;-0.10;99.90
6664;DHT22;58749;48.022;10.922;2023-02-11T02:31:39;-0.10;99.90
6664;DHT22;58749;48.022;10.922;2023-02-11T02:34:19;-0.10;99.90
6664;DHT22;58749;48.022;10.922;2023-02-11T02:36:56;-0.10;99.90
6664;DHT22;58749;48.022;10.922;2023-02-11T02:39:27;-0.10;99.90
6664;DHT22;58749;48.022;10.922;2023-02-11T02:41:57;-0.10;99.90
6664;DHT22;58749;48.022;10.922;2023-02-11T02:44:25;-0.10;99.90
6664;DHT22;58749;48.022;10.922;2023-02-11T02:46:53;-0.10;99.90
6664;DHT22;58749;48.022;10.922;2023-02-11T02:49:23;-0.10;99.90
6664;DHT22;58749;48.022;10.922;2023-02-11T02:52:03;-0.10;99.90
6664;DHT22;58749;48.022;10.922;2023-02-11T02:55:01;-0.20;99.90
6664;DHT22;58749;48.022;10.922;2023-02-11T02:57:35;-0.10;99.90
6664;DHT22;58749;48.022;10.922;2023-02-11T03:00:17;-0.10;99.90
6664;DHT22;58749;48.022;10.922;2023-02-11T03:02:54;-0.10;99.90
6664;DHT22;58749;48.022;10.922;2023-02-11T03:05:30;-0.20;99.90
6664;DHT22;58749;48.022;10.922;2023-02-11T03:08:05;-0.20;99.90
6664;DHT22;58749;48.022;10.922;2023-02-11T03:10:37;-0.20;99.90
6664;DHT22;58749;48.022;10.922;2023-02-11T03:13:07;-0.20;99.90
6664;DHT22;58749;48.022;10.922;2023-02-11T03:15:38;-0.20;99.90
6664;DHT22;58749;48.022;10.922;2023-02-11T03:18:12;-0.20;99.90
6664;DHT22;58749;48.022;10.922;2023-02-11T03:20:44;-0.10;99.90
6664;DHT22;58749;48.022;10.922;2023-02-11T03:23:18;-0.10;99.90
6664;DHT22;58749;48.022;10.922;2023-02-11T03:25:52;-0.20;99.90
6664;DHT22;58749;48.022;10.922;2023-02-11T03:28:30;-0.20;99.90
6664;DHT22;58749;48.022;10.922;2023-02-11T03:31:08;-0.20;99.90
6664;DHT22;58749;48.022;10.922;2023-02-11T03:33:40;-0.20;99.90
6664;DHT22;58749;48.022;10.922;2023-02-11T03:36:17;-0.20;99.90
6664;DHT22;58749;48.022;10.922;2023-02-11T03:38:48;-0.20;99.90
6664;DHT22;58749;48.022;10.922;2023-02-11T03:41:20;-0.20;99.90
6664;DHT22;58749;48.022;10.922;2023-02-11T03:43:50;-0.20;99.90
6664;DHT22;58749;48.022;10.922;2023-02-11T03:46:23;-0.10;99.90
6664;DHT22;58749;48.022;10.922;2023-02-11T03:48:56;-0.20;99.90
6664;DHT22;58749;48.022;10.922;2023-02-11T03:51:28;-0.20;99.90
6664;DHT22;58749;48.022;10.922;2023-02-11T03:54:00;-0.20;99.90
6664;DHT22;58749;48.022;10.922;2023-02-11T03:56:32;-0.20;99.90
6664;DHT22;58749;48.022;10.922;2023-02-11T03:59:02;-0.20;99.90
6664;DHT22;58749;48.022;10.922;2023-02-11T04:01:30;-0.20;99.90
6664;DHT22;58749;48.022;10.922;2023-02-11T04:03:58;-0.30;99.90
6664;DHT22;58749;48.022;10.922;2023-02-11T04:06:27;-0.30;99.90
6664;DHT22;58749;48.022;10.922;2023-02-11T04:08:55;-0.30;99.90
6664;DHT22;58749;48.022;10.922;2023-02-11T04:11:23;-0.30;99.90
6664;DHT22;58749;48.022;10.922;2023-02-11T04:13:51;-0.40;99.90
6664;DHT22;58749;48.022;10.922;2023-02-11T04:16:19;-0.40;99.90
6664;DHT22;58749;48.022;10.922;2023-02-11T04:18:48;-0.40;99.90
6664;DHT22;58749;48.022;10.922;2023-02-11T04:21:16;-0.40;99.90
6664;DHT22;58749;48.022;10.922;2023-02-11T04:23:45;-0.30;99.90
6664;DHT22;58749;48.022;10.922;2023-02-11T04:26:13;-0.30;99.90
6664;DHT22;58749;48.022;10.922;2023-02-11T04:28:41;-0.30;99.90
6664;DHT22;58749;48.022;10.922;2023-02-11T04:31:09;-0.30;99.90
6664;DHT22;58749;48.022;10.922;2023-02-11T04:33:38;-0.30;99.90
6664;DHT22;58749;48.022;10.922;2023-02-11T04:36:07;-0.30;99.90
6664;DHT22;58749;48.022;10.922;2023-02-11T04:38:35;-0.30;99.90
6664;DHT22;58749;48.022;10.922;2023-02-11T04:41:04;-0.30;99.90
6664;DHT22;58749;48.022;10.922;2023-02-11T04:43:32;-0.30;99.90
6664;DHT22;58749;48.022;10.922;2023-02-11T04:46:00;-0.30;99.90
6664;DHT22;58749;48.022;10.922;2023-02-11T04:48:29;-0.30;99.90
6664;DHT22;58749;48.022;10.922;2023-02-11T04:50:56;-0.30;99.90
6664;DHT22;58749;48.022;10.922;2023-02-11T04:53:25;-0.30;99.90
6664;DHT22;58749;48.022;10.922;2023-02-11T04:55:53;-0.30;99.90
6664;DHT22;58749;48.022;10.922;2023-02-11T04:58:22;-0.30;99.90
6664;DHT22;58749;48.022;10.922;2023-02-11T05:00:50;-0.30;99.90
6664;DHT22;58749;48.022;10.922;2023-02-11T05:03:19;-0.40;99.90
6664;DHT22;58749;48.022;10.922;2023-02-11T05:05:47;-0.40;99.90
6664;DHT22;58749;48.022;10.922;2023-02-11T05:08:15;-0.40;99.90
6664;DHT22;58749;48.022;10.922;2023-02-11T05:10:45;-0.50;99.90
6664;DHT22;58749;48.022;10.922;2023-02-11T05:13:13;-0.50;99.90
6664;DHT22;58749;48.022;10.922;2023-02-11T05:15:43;-0.50;99.90
6664;DHT22;58749;48.022;10.922;2023-02-11T05:18:11;-0.50;99.90
6664;DHT22;58749;48.022;10.922;2023-02-11T05:20:40;-0.40;99.90
6664;DHT22;58749;48.022;10.922;2023-02-11T05:23:08;-0.50;99.90
6664;DHT22;58749;48.022;10.922;2023-02-11T05:25:36;-0.50;99.90
6664;DHT22;58749;48.022;10.922;2023-02-11T05:28:05;-0.50;99.90
6664;DHT22;58749;48.022;10.922;2023-02-11T05:30:33;-0.50;99.90
6664;DHT22;58749;48.022;10.922;2023-02-11T05:33:03;-0.50;99.90
6664;DHT22;58749;48.022;10.922;2023-02-11T05:35:31;-0.50;99.90
6664;DHT22;58749;48.022;10.922;2023-02-11T05:37:59;-0.50;99.90
6664;DHT22;58749;48.022;10.922;2023-02-11T05:40:27;-0.50;99.90
6664;DHT22;58749;48.022;10.922;2023-02-11T05:42:55;-0.40;99.90
6664;DHT22;58749;48.022;10.922;2023-02-11T05:45:23;-0.40;99.90
6664;DHT22;58749;48.022;10.922;2023-02-11T05:47:51;-0.40;99.90
6664;DHT22;58749;48.022;10.922;2023-02-11T05:50:20;-0.40;99.90
6664;DHT22;58749;48.022;10.922;2023-02-11T05:52:48;-0.30;99.90
6664;DHT22;58749;48.022;10.922;2023-02-11T05:55:17;-0.30;99.90
6664;DHT22;58749;48.022;10.922;2023-02-11T05:57:45;-0.30;99.90
6664;DHT22;58749;48.022;10.922;2023-02-11T06:00:14;-0.30;99.90
6664;DHT22;58749;48.022;10.922;2023-02-11T06:02:42;-0.30;99.90
6664;DHT22;58749;48.022;10.922;2023-02-11T06:05:10;-0.30;99.90
6664;DHT22;58749;48.022;10.922;2023-02-11T06:07:40;-0.30;99.90
6664;DHT22;58749;48.022;10.922;2023-02-11T06:10:08;-0.30;99.90
6664;DHT22;58749;48.022;10.922;2023-02-11T06:12:37;-0.40;99.90
6664;DHT22;58749;48.022;10.922;2023-02-11T06:15:06;-0.40;99.90
6664;DHT22;58749;48.022;10.922;2023-02-11T06:17:34;-0.40;99.90
6664;DHT22;58749;48.022;10.922;2023-02-11T06:20:04;-0.40;99.90
6664;DHT22;58749;48.022;10.922;2023-02-11T06:22:33;-0.40;99.90
6664;DHT22;58749;48.022;10.922;2023-02-11T06:25:02;-0.40;99.90
6664;DHT22;58749;48.022;10.922;2023-02-11T06:27:31;-0.40;99.90
6664;DHT22;58749;48.022;10.922;2023-02-11T06:29:59;-0.40;99.90
6664;DHT22;58749;48.022;10.922;2023-02-11T06:32:27;-0.40;99.90
6664;DHT22;58749;48.022;10.922;2023-02-11T06:35:12;-0.40;99.90
6664;DHT22;58749;48.022;10.922;2023-02-11T06:37:40;-0.40;99.90
6664;DHT22;58749;48.022;10.922;2023-02-11T06:40:11;-0.40;99.90
6664;DHT22;58749;48.022;10.922;2023-02-11T06:42:39;-0.30;99.90
6664;DHT22;58749;48.022;10.922;2023-02-11T06:45:08;-0.30;99.90
6664;DHT22;58749;48.022;10.922;2023-02-11T06:47:37;-0.30;99.90
6664;DHT22;58749;48.022;10.922;2023-02-11T06:50:07;-0.20;99.90
6664;DHT22;58749;48.022;10.922;2023-02-11T06:52:35;-0.10;99.90
6664;DHT22;58749;48.022;10.922;2023-02-11T06:55:04;0.00;99.90
6664;DHT22;58749;48.022;10.922;2023-02-11T06:57:33;0.00;99.90
6664;DHT22;58749;48.022;10.922;2023-02-11T07:00:02;0.10;99.90
6664;DHT22;58749;48.022;10.922;2023-02-11T07:02:31;0.10;99.90
6664;DHT22;58749;48.022;10.922;2023-02-11T07:04:59;0.20;99.90
6664;DHT22;58749;48.022;10.922;2023-02-11T07:07:27;0.30;99.90
6664;DHT22;58749;48.022;10.922;2023-02-11T07:09:59;0.20;99.90
6664;DHT22;58749;48.022;10.922;2023-02-11T07:12:28;0.30;99.90
6664;DHT22;58749;48.022;10.922;2023-02-11T07:14:58;0.30;99.90
6664;DHT22;58749;48.022;10.922;2023-02-11T07:17:26;0.40;99.90
6664;DHT22;58749;48.022;10.922;2023-02-11T07:19:54;0.40;99.90
6664;DHT22;58749;48.022;10.922;2023-02-11T07:22:22;0.40;99.90
6664;DHT22;58749;48.022;10.922;2023-02-11T07:24:50;0.40;99.90
6664;DHT22;58749;48.022;10.922;2023-02-11T07:27:19;0.40;99.90
6664;DHT22;58749;48.022;10.922;2023-02-11T07:29:47;0.40;99.90
6664;DHT22;58749;48.022;10.922;2023-02-11T07:32:16;0.40;99.90
6664;DHT22;58749;48.022;10.922;2023-02-11T07:34:44;0.50;99.90
6664;DHT22;58749;48.022;10.922;2023-02-11T07:37:13;0.50;99.90
6664;DHT22;58749;48.022;10.922;2023-02-11T07:39:41;0.50;99.90
6664;DHT22;58749;48.022;10.922;2023-02-11T07:42:10;0.60;99.90
6664;DHT22;58749;48.022;10.922;2023-02-11T07:44:38;0.60;99.90
6664;DHT22;58749;48.022;10.922;2023-02-11T07:47:06;0.60;99.90
6664;DHT22;58749;48.022;10.922;2023-02-11T07:49:36;0.60;99.90
6664;DHT22;58749;48.022;10.922;2023-02-11T07:52:04;0.70;99.90
6664;DHT22;58749;48.022;10.922;2023-02-11T07:54:32;0.70;99.90
6664;DHT22;58749;48.022;10.922;2023-02-11T07:57:00;0.70;99.90
6664;DHT22;58749;48.022;10.922;2023-02-11T07:59:28;0.70;99.90
6664;DHT22;58749;48.022;10.922;2023-02-11T08:01:56;0.70;99.90
6664;DHT22;58749;48.022;10.922;2023-02-11T08:04:25;0.80;99.90
6664;DHT22;58749;48.022;10.922;2023-02-11T08:06:55;0.80;99.90
6664;DHT22;58749;48.022;10.922;2023-02-11T08:09:25;0.90;99.90
6664;DHT22;58749;48.022;10.922;2023-02-11T08:11:53;0.90;99.90
6664;DHT22;58749;48.022;10.922;2023-02-11T08:14:21;0.90;99.90
6664;DHT22;58749;48.022;10.922;2023-02-11T08:16:50;0.90;99.90
6664;DHT22;58749;48.022;10.922;2023-02-11T08:19:19;1.00;99.90
6664;DHT22;58749;48.022;10.922;2023-02-11T08:21:47;0.90;99.90
6664;DHT22;58749;48.022;10.922;2023-02-11T08:24:16;0.80;99.90
6664;DHT22;58749;48.022;10.922;2023-02-11T08:26:44;0.80;99.90
6664;DHT22;58749;48.022;10.922;2023-02-11T08:29:13;0.80;99.90
6664;DHT22;58749;48.022;10.922;2023-02-11T08:31:43;0.80;99.90
6664;DHT22;58749;48.022;10.922;2023-02-11T08:34:12;0.80;99.90
6664;DHT22;58749;48.022;10.922;2023-02-11T08:36:45;0.80;99.90
6664;DHT22;58749;48.022;10.922;2023-02-11T08:39:17;0.90;99.90
6664;DHT22;58749;48.022;10.922;2023-02-11T08:41:48;1.00;99.90
6664;DHT22;58749;48.022;10.922;2023-02-11T08:44:17;1.10;99.90
6664;DHT22;58749;48.022;10.922;2023-02-11T08:46:46;1.20;99.90
6664;DHT22;58749;48.022;10.922;2023-02-11T08:49:14;1.40;99.90
6664;DHT22;58749;48.022;10.922;2023-02-11T08:51:43;1.40;99.90
6664;DHT22;58749;48.022;10.922;2023-02-11T08:54:11;1.50;99.90
6664;DHT22;58749;48.022;10.922;2023-02-11T08:56:41;1.50;99.90
6664;DHT22;58749;48.022;10.922;2023-02-11T08:59:11;1.50;99.90
6664;DHT22;58749;48.022;10.922;2023-02-11T09:01:40;1.50;99.90
6664;DHT22;58749;48.022;10.922;2023-02-11T09:04:10;1.50;99.90
6664;DHT22;58749;48.022;10.922;2023-02-11T09:06:38;1.50;99.90
6664;DHT22;58749;48.022;10.922;2023-02-11T09:09:10;1.50;99.90
6664;DHT22;58749;48.022;10.922;2023-02-11T09:11:39;1.60;99.90
6664;DHT22;58749;48.022;10.922;2023-02-11T09:14:15;1.70;99.90
6664;DHT22;58749;48.022;10.922;2023-02-11T09:16:43;1.60;99.90
6664;DHT22;58749;48.022;10.922;2023-02-11T09:19:12;1.70;99.90
6664;DHT22;58749;48.022;10.922;2023-02-11T09:21:40;1.60;99.90
6664;DHT22;58749;48.022;10.922;2023-02-11T09:24:08;1.70;99.90
6664;DHT22;58749;48.022;10.922;2023-02-11T09:26:37;1.70;99.90
6664;DHT22;58749;48.022;10.922;2023-02-11T09:29:05;1.70;99.90
6664;DHT22;58749;48.022;10.922;2023-02-11T09:31:35;1.70;99.90
6664;DHT22;58749;48.022;10.922;2023-02-11T09:34:05;1.70;99.90
6664;DHT22;58749;48.022;10.922;2023-02-11T09:36:35;1.70;99.90
6664;DHT22;58749;48.022;10.922;2023-02-11T09:39:05;1.80;99.90
6664;DHT22;58749;48.022;10.922;2023-02-11T09:41:58;1.80;99.90
6664;DHT22;58749;48.022;10.922;2023-02-11T09:44:32;1.90;99.90
6664;DHT22;58749;48.022;10.922;2023-02-11T09:47:03;2.00;99.90
6664;DHT22;58749;48.022;10.922;2023-02-11T09:49:37;2.20;99.90
6664;DHT22;58749;48.022;10.922;2023-02-11T09:52:12;2.40;99.90
6664;DHT22;58749;48.022;10.922;2023-02-11T09:54:52;2.50;99.90
6664;DHT22;58749;48.022;10.922;2023-02-11T09:57:21;2.70;99.90
6664;DHT22;58749;48.022;10.922;2023-02-11T09:59:55;2.80;99.90
6664;DHT22;58749;48.022;10.922;2023-02-11T10:02:29;2.90;99.90
6664;DHT22;58749;48.022;10.922;2023-02-11T10:05:24;3.00;99.90
6664;DHT22;58749;48.022;10.922;2023-02-11T10:08:00;3.00;99.90
6664;DHT22;58749;48.022;10.922;2023-02-11T10:10:43;3.00;99.90
6664;DHT22;58749;48.022;10.922;2023-02-11T10:13:29;3.00;99.90
6664;DHT22;58749;48.022;10.922;2023-02-11T10:16:08;3.00;99.90
6664;DHT22;58749;48.022;10.922;2023-02-11T10:19:05;3.00;99.90
6664;DHT22;58749;48.022;10.922;2023-02-11T10:21:45;2.90;99.90
6664;DHT22;58749;48.022;10.922;2023-02-11T10:24:16;3.00;99.90
6664;DHT22;58749;48.022;10.922;2023-02-11T10:26:45;2.90;99.90
6664;DHT22;58749;48.022;10.922;2023-02-11T10:29:30;2.90;99.90
6664;DHT22;58749;48.022;10.922;2023-02-11T10:32:04;3.00;99.90
6664;DHT22;58749;48.022;10.922;2023-02-11T10:34:40;3.10;99.90
6664;DHT22;58749;48.022;10.922;2023-02-11T10:37:09;3.20;99.90
6664;DHT22;58749;48.022;10.922;2023-02-11T10:39:40;3.30;99.90
6664;DHT22;58749;48.022;10.922;2023-02-11T10:42:10;3.40;99.90
6664;DHT22;58749;48.022;10.922;2023-02-11T10:44:41;3.50;99.90
6664;DHT22;58749;48.022;10.922;2023-02-11T10:47:18;3.50;99.90
6664;DHT22;58749;48.022;10.922;2023-02-11T10:49:48;3.50;99.90
6664;DHT22;58749;48.022;10.922;2023-02-11T10:52:22;3.50;99.90
6664;DHT22;58749;48.022;10.922;2023-02-11T10:54:59;3.50;99.90
6664;DHT22;58749;48.022;10.922;2023-02-11T10:57:32;3.50;99.90
6664;DHT22;58749;48.022;10.922;2023-02-11T11:00:05;3.40;99.90
6664;DHT22;58749;48.022;10.922;2023-02-11T11:02:35;3.40;99.90
6664;DHT22;58749;48.022;10.922;2023-02-11T11:05:17;3.50;99.90
6664;DHT22;58749;48.022;10.922;2023-02-11T11:07:54;3.50;99.90
6664;DHT22;58749;48.022;10.922;2023-02-11T11:10:29;3.40;99.90
6664;DHT22;58749;48.022;10.922;2023-02-11T11:12:58;3.50;99.90
6664;DHT22;58749;48.022;10.922;2023-02-11T11:15:28;3.50;99.90
6664;DHT22;58749;48.022;10.922;2023-02-11T11:18:13;3.50;99.90
6664;DHT22;58749;48.022;10.922;2023-02-11T11:20:57;3.50;99.90
6664;DHT22;58749;48.022;10.922;2023-02-11T11:23:27;3.50;99.90
6664;DHT22;58749;48.022;10.922;2023-02-11T11:26:02;3.50;99.90
6664;DHT22;58749;48.022;10.922;2023-02-11T11:28:35;3.50;99.90
6664;DHT22;58749;48.022;10.922;2023-02-11T11:31:10;3.50;99.90
6664;DHT22;58749;48.022;10.922;2023-02-11T11:33:41;3.50;99.90
6664;DHT22;58749;48.022;10.922;2023-02-11T11:36:12;3.60;99.90
6664;DHT22;58749;48.022;10.922;2023-02-11T11:38:48;3.60;99.90
6664;DHT22;58749;48.022;10.922;2023-02-11T11:41:24;3.60;99.90
6664;DHT22;58749;48.022;10.922;2023-02-11T11:43:54;3.70;99.90
6664;DHT22;58749;48.022;10.922;2023-02-11T11:46:25;3.70;99.90
6664;DHT22;58749;48.022;10.922;2023-02-11T11:48:57;3.70;99.90
6664;DHT22;58749;48.022;10.922;2023-02-11T11:51:31;3.60;99.90
6664;DHT22;58749;48.022;10.922;2023-02-11T11:54:00;3.50;99.90
6664;DHT22;58749;48.022;10.922;2023-02-11T11:56:32;3.50;99.90
6664;DHT22;58749;48.022;10.922;2023-02-11T11:59:05;3.50;99.90
6664;DHT22;58749;48.022;10.922;2023-02-11T12:01:45;3.40;99.90
6664;DHT22;58749;48.022;10.922;2023-02-11T12:04:35;3.50;99.90
6664;DHT22;58749;48.022;10.922;2023-02-11T12:07:23;3.50;99.90
6664;DHT22;58749;48.022;10.922;2023-02-11T12:12:55;3.60;99.90
6664;DHT22;58749;48.022;10.922;2023-02-11T12:15:42;3.70;99.90
6664;DHT22;58749;48.022;10.922;2023-02-11T12:18:40;3.70;99.90
6664;DHT22;58749;48.022;10.922;2023-02-11T12:21:28;3.80;99.90
6664;DHT22;58749;48.022;10.922;2023-02-11T12:24:12;3.70;99.90
6664;DHT22;58749;48.022;10.922;2023-02-11T12:26:46;3.70;99.90
6664;DHT22;58749;48.022;10.922;2023-02-11T12:29:23;3.70;99.90
6664;DHT22;58749;48.022;10.922;2023-02-11T12:32:05;3.60;99.90
6664;DHT22;58749;48.022;10.922;2023-02-11T12:34:55;3.60;99.90
6664;DHT22;58749;48.022;10.922;2023-02-11T12:37:38;3.60;99.90
6664;DHT22;58749;48.022;10.922;2023-02-11T12:40:14;3.80;99.90
6664;DHT22;58749;48.022;10.922;2023-02-11T12:42:50;3.90;99.90
6664;DHT22;58749;48.022;10.922;2023-02-11T12:45:49;4.00;99.90
6664;DHT22;58749;48.022;10.922;2023-02-11T12:48:34;4.20;99.90
6664;DHT22;58749;48.022;10.922;2023-02-11T12:51:12;4.30;99.90
6664;DHT22;58749;48.022;10.922;2023-02-11T12:53:59;4.40;99.90
6664;DHT22;58749;48.022;10.922;2023-02-11T12:56:38;4.50;99.90
6664;DHT22;58749;48.022;10.922;2023-02-11T12:59:12;4.50;99.90
6664;DHT22;58749;48.022;10.922;2023-02-11T13:01:43;4.50;99.90
6664;DHT22;58749;48.022;10.922;2023-02-11T13:04:16;4.40;99.90
6664;DHT22;58749;48.022;10.922;2023-02-11T13:06:49;4.30;99.90
6664;DHT22;58749;48.022;10.922;2023-02-11T13:09:22;4.30;99.90
6664;DHT22;58749;48.022;10.922;2023-02-11T13:11:55;4.20;99.90
6664;DHT22;58749;48.022;10.922;2023-02-11T13:14:24;4.20;99.90
6664;DHT22;58749;48.022;10.922;2023-02-11T13:16:54;4.30;99.90
6664;DHT22;58749;48.022;10.922;2023-02-11T13:19:28;4.40;99.90
6664;DHT22;58749;48.022;10.922;2023-02-11T13:22:08;4.40;99.90
6664;DHT22;58749;48.022;10.922;2023-02-11T13:24:42;4.50;99.90
6664;DHT22;58749;48.022;10.922;2023-02-11T13:27:23;4.60;99.90
6664;DHT22;58749;48.022;10.922;2023-02-11T13:30:25;4.70;99.90
6664;DHT22;58749;48.022;10.922;2023-02-11T13:33:17;4.80;99.90
6664;DHT22;58749;48.022;10.922;2023-02-11T13:36:19;4.80;99.90
6664;DHT22;58749;48.022;10.922;2023-02-11T13:38:55;4.90;99.90
6664;DHT22;58749;48.022;10.922;2023-02-11T13:41:29;5.00;99.90
6664;DHT22;58749;48.022;10.922;2023-02-11T13:44:21;5.00;99.90
6664;DHT22;58749;48.022;10.922;2023-02-11T13:47:01;5.10;99.90
6664;DHT22;58749;48.022;10.922;2023-02-11T13:49:34;5.10;99.90
6664;DHT22;58749;48.022;10.922;2023-02-11T13:52:20;5.10;99.90
6664;DHT22;58749;48.022;10.922;2023-02-11T13:54:50;5.00;99.90
6664;DHT22;58749;48.022;10.922;2023-02-11T13:57:33;5.10;99.90
6664;DHT22;58749;48.022;10.922;2023-02-11T14:03:25;5.20;99.90
6664;DHT22;58749;48.022;10.922;2023-02-11T14:06:17;5.20;99.90
6664;DHT22;58749;48.022;10.922;2023-02-11T14:11:53;5.20;99.90
6664;DHT22;58749;48.022;10.922;2023-02-11T14:15:00;5.20;99.90
6664;DHT22;58749;48.022;10.922;2023-02-11T14:17:32;5.10;99.90
6664;DHT22;58749;48.022;10.922;2023-02-11T14:20:30;5.10;99.90
6664;DHT22;58749;48.022;10.922;2023-02-11T14:22:52;5.10;99.90
6664;DHT22;58749;48.022;10.922;2023-02-11T14:25:24;5.00;99.90
6664;DHT22;58749;48.022;10.922;2023-02-11T14:27:56;5.00;99.90
6664;DHT22;58749;48.022;10.922;2023-02-11T14:30:41;5.00;99.90
6664;DHT22;58749;48.022;10.922;2023-02-11T14:36:48;5.00;99.90
6664;DHT22;58749;48.022;10.922;2023-02-11T14:39:29;5.00;99.90
6664;DHT22;58749;48.022;10.922;2023-02-11T14:42:00;4.90;99.90
6664;DHT22;58749;48.022;10.922;2023-02-11T14:44:30;4.90;99.90
6664;DHT22;58749;48.022;10.922;2023-02-11T14:46:59;4.80;99.90
6664;DHT22;58749;48.022;10.922;2023-02-11T14:49:30;4.80;99.90
6664;DHT22;58749;48.022;10.922;2023-02-11T14:52:06;4.80;99.90
6664;DHT22;58749;48.022;10.922;2023-02-11T14:54:41;4.80;99.90
6664;DHT22;58749;48.022;10.922;2023-02-11T14:57:13;4.80;99.90
6664;DHT22;58749;48.022;10.922;2023-02-11T14:59:53;4.80;99.90
6664;DHT22;58749;48.022;10.922;2023-02-11T15:02:23;4.80;99.90
6664;DHT22;58749;48.022;10.922;2023-02-11T15:04:52;4.70;99.90
6664;DHT22;58749;48.022;10.922;2023-02-11T15:07:22;4.60;99.90
6664;DHT22;58749;48.022;10.922;2023-02-11T15:09:52;4.60;99.90
6664;DHT22;58749;48.022;10.922;2023-02-11T15:12:23;4.50;99.90
6664;DHT22;58749;48.022;10.922;2023-02-11T15:14:53;4.60;99.90
6664;DHT22;58749;48.022;10.922;2023-02-11T15:17:24;4.50;99.90
6664;DHT22;58749;48.022;10.922;2023-02-11T15:19:55;4.50;99.90
6664;DHT22;58749;48.022;10.922;2023-02-11T15:22:28;4.50;99.90
6664;DHT22;58749;48.022;10.922;2023-02-11T15:25:00;4.50;99.90
6664;DHT22;58749;48.022;10.922;2023-02-11T15:27:37;4.50;99.90
6664;DHT22;58749;48.022;10.922;2023-02-11T15:30:22;4.50;99.90
6664;DHT22;58749;48.022;10.922;2023-02-11T15:32:52;4.50;99.90
6664;DHT22;58749;48.022;10.922;2023-02-11T15:35:25;4.50;99.90
6664;DHT22;58749;48.022;10.922;2023-02-11T15:37:56;4.50;99.90
6664;DHT22;58749;48.022;10.922;2023-02-11T15:40:26;4.50;99.90
6664;DHT22;58749;48.022;10.922;2023-02-11T15:42:56;4.40;99.90
6664;DHT22;58749;48.022;10.922;2023-02-11T15:45:27;4.40;99.90
6664;DHT22;58749;48.022;10.922;2023-02-11T15:47:58;4.40;99.90
6664;DHT22;58749;48.022;10.922;2023-02-11T15:50:28;4.40;99.90
6664;DHT22;58749;48.022;10.922;2023-02-11T15:53:02;4.30;99.90
6664;DHT22;58749;48.022;10.922;2023-02-11T15:55:32;4.30;99.90
6664;DHT22;58749;48.022;10.922;2023-02-11T15:58:00;4.30;99.90
6664;DHT22;58749;48.022;10.922;2023-02-11T16:00:33;4.20;99.90
6664;DHT22;58749;48.022;10.922;2023-02-11T16:03:02;4.20;99.90
6664;DHT22;58749;48.022;10.922;2023-02-11T16:05:33;4.20;99.90
6664;DHT22;58749;48.022;10.922;2023-02-11T16:08:19;4.10;99.90
6664;DHT22;58749;48.022;10.922;2023-02-11T16:10:56;4.10;99.90
6664;DHT22;58749;48.022;10.922;2023-02-11T16:13:25;4.10;99.90
6664;DHT22;58749;48.022;10.922;2023-02-11T16:15:55;4.10;99.90
6664;DHT22;58749;48.022;10.922;2023-02-11T16:18:30;4.10;99.90
6664;DHT22;58749;48.022;10.922;2023-02-11T16:21:06;4.20;99.90
6664;DHT22;58749;48.022;10.922;2023-02-11T16:23:40;4.20;99.90
6664;DHT22;58749;48.022;10.922;2023-02-11T16:26:18;4.20;99.90
6664;DHT22;58749;48.022;10.922;2023-02-11T16:28:47;4.20;99.90
6664;DHT22;58749;48.022;10.922;2023-02-11T16:31:16;4.20;99.90
6664;DHT22;58749;48.022;10.922;2023-02-11T16:33:44;4.20;99.90
6664;DHT22;58749;48.022;10.922;2023-02-11T16:36:14;4.10;99.90